sensor_id;sensor_type;location;lat;lon;timestamp;temperature;humidity
36670;DHT22;22662;47.412;9.742;2022-11-20T00:01:04;6.40;99.90
36670;DHT22;22662;47.412;9.742;2022-11-20T00:03:30;6.40;99.90
36670;DHT22;22662;47.412;9.742;2022-11-20T00:05:59;6.40;99.90
36670;DHT22;22662;47.412;9.742;2022-11-20T00:08:24;6.40;99.90
36670;DHT22;22662;47.412;9.742;2022-11-20T00:10:50;6.50;99.90
36670;DHT22;22662;47.412;9.742;2022-11-20T00:13:16;6.40;99.90
36670;DHT22;22662;47.412;9.742;2022-11-20T00:15:41;6.50;99.90
36670;DHT22;22662;47.412;9.742;2022-11-20T00:18:07;6.40;99.90
36670;DHT22;22662;47.412;9.742;2022-11-20T00:20:32;6.50;99.90
36670;DHT22;22662;47.412;9.742;2022-11-20T00:22:58;6.50;99.90
36670;DHT22;22662;47.412;9.742;2022-11-20T00:25:23;6.60;99.90
36670;DHT22;22662;47.412;9.742;2022-11-20T00:27:49;6.50;99.90
36670;DHT22;22662;47.412;9.742;2022-11-20T00:30:14;6.50;99.90
36670;DHT22;22662;47.412;9.742;2022-11-20T00:32:40;6.40;99.90
36670;DHT22;22662;47.412;9.742;2022-11-20T00:35:05;6.30;99.90
36670;DHT22;22662;47.412;9.742;2022-11-20T00:37:31;6.20;99.90
36670;DHT22;22662;47.412;9.742;2022-11-20T00:39:56;6.20;99.90
36670;DHT22;22662;47.412;9.742;2022-11-20T00:42:22;6.30;99.90
36670;DHT22;22662;47.412;9.742;2022-11-20T00:44:47;6.40;99.90
36670;DHT22;22662;47.412;9.742;2022-11-20T00:47:13;6.40;99.90
36670;DHT22;22662;47.412;9.742;2022-11-20T00:49:39;6.40;99.90
36670;DHT22;22662;47.412;9.742;2022-11-20T00:52:04;6.40;99.90
36670;DHT22;22662;47.412;9.742;2022-11-20T00:54:30;6.50;99.90
36670;DHT22;22662;47.412;9.742;2022-11-20T00:56:55;6.50;99.90
36670;DHT22;22662;47.412;9.742;2022-11-20T00:59:21;6.50;99.90
36670;DHT22;22662;47.412;9.742;2022-11-20T01:01:46;6.50;99.90
36670;DHT22;22662;47.412;9.742;2022-11-20T01:04:12;6.50;99.90
36670;DHT22;22662;47.412;9.742;2022-11-20T01:06:38;6.50;99.90
36670;DHT22;22662;47.412;9.742;2022-11-20T01:09:07;6.60;99.90
36670;DHT22;22662;47.412;9.742;2022-11-20T01:11:35;6.60;99.90
36670;DHT22;22662;47.412;9.742;2022-11-20T01:14:02;6.70;99.90
36670;DHT22;22662;47.412;9.742;2022-11-20T01:16:29;6.70;99.90
36670;DHT22;22662;47.412;9.742;2022-11-20T01:18:56;6.70;99.90
36670;DHT22;22662;47.412;9.742;2022-11-20T01:21:23;6.70;99.90
36670;DHT22;22662;47.412;9.742;2022-11-20T01:23:49;6.80;99.90
36670;DHT22;22662;47.412;9.742;2022-11-20T01:26:19;6.80;99.90
36670;DHT22;22662;47.412;9.742;2022-11-20T01:28:44;6.90;99.90
36670;DHT22;22662;47.412;9.742;2022-11-20T01:31:17;6.90;99.90
36670;DHT22;22662;47.412;9.742;2022-11-20T01:33:43;6.90;99.90
36670;DHT22;22662;47.412;9.742;2022-11-20T01:36:09;7.00;99.90
36670;DHT22;22662;47.412;9.742;2022-11-20T01:38:35;6.90;99.90
36670;DHT22;22662;47.412;9.742;2022-11-20T01:41:00;6.80;99.90
36670;DHT22;22662;47.412;9.742;2022-11-20T01:43:26;6.70;99.90
36670;DHT22;22662;47.412;9.742;2022-11-20T01:48:38;6.70;99.90
36670;DHT22;22662;47.412;9.742;2022-11-20T01:51:06;6.60;99.90
36670;DHT22;22662;47.412;9.742;2022-11-20T01:53:34;6.50;99.90
36670;DHT22;22662;47.412;9.742;2022-11-20T01:56:01;6.50;99.90
36670;DHT22;22662;47.412;9.742;2022-11-20T01:58:32;6.50;99.90
36670;DHT22;22662;47.412;9.742;2022-11-20T02:00:59;6.50;99.90
36670;DHT22;22662;47.412;9.742;2022-11-20T02:03:24;6.50;99.90
36670;DHT22;22662;47.412;9.742;2022-11-20T02:05:52;6.50;99.90
36670;DHT22;22662;47.412;9.742;2022-11-20T02:08:19;6.50;99.90
36670;DHT22;22662;47.412;9.742;2022-11-20T02:10:45;6.50;99.90
36670;DHT22;22662;47.412;9.742;2022-11-20T02:13:10;6.50;99.90
36670;DHT22;22662;47.412;9.742;2022-11-20T02:15:54;6.30;99.90
36670;DHT22;22662;47.412;9.742;2022-11-20T02:18:20;6.30;99.90
36670;DHT22;22662;47.412;9.742;2022-11-20T02:20:47;6.30;99.90
36670;DHT22;22662;47.412;9.742;2022-11-20T02:25:57;6.30;99.90
36670;DHT22;22662;47.412;9.742;2022-11-20T02:28:23;6.20;99.90
36670;DHT22;22662;47.412;9.742;2022-11-20T02:30:49;6.30;99.90
36670;DHT22;22662;47.412;9.742;2022-11-20T02:33:14;6.30;99.90
36670;DHT22;22662;47.412;9.742;2022-11-20T02:35:44;6.30;99.90
36670;DHT22;22662;47.412;9.742;2022-11-20T02:38:10;6.30;99.90
36670;DHT22;22662;47.412;9.742;2022-11-20T02:40:36;6.30;99.90
36670;DHT22;22662;47.412;9.742;2022-11-20T02:43:01;6.40;99.90
36670;DHT22;22662;47.412;9.742;2022-11-20T02:45:27;6.30;99.90
36670;DHT22;22662;47.412;9.742;2022-11-20T02:47:52;6.30;99.90
36670;DHT22;22662;47.412;9.742;2022-11-20T02:50:18;6.30;99.90
36670;DHT22;22662;47.412;9.742;2022-11-20T02:52:43;6.40;99.90
36670;DHT22;22662;47.412;9.742;2022-11-20T02:55:09;6.40;99.90
36670;DHT22;22662;47.412;9.742;2022-11-20T02:57:35;6.40;99.90
36670;DHT22;22662;47.412;9.742;2022-11-20T03:00:01;6.40;99.90
36670;DHT22;22662;47.412;9.742;2022-11-20T03:02:30;6.40;99.90
36670;DHT22;22662;47.412;9.742;2022-11-20T03:04:56;6.40;99.90
36670;DHT22;22662;47.412;9.742;2022-11-20T03:07:22;6.40;99.90
36670;DHT22;22662;47.412;9.742;2022-11-20T03:09:47;6.30;99.90
36670;DHT22;22662;47.412;9.742;2022-11-20T03:12:13;6.30;99.90
36670;DHT22;22662;47.412;9.742;2022-11-20T03:14:39;6.30;99.90
36670;DHT22;22662;47.412;9.742;2022-11-20T03:17:04;6.30;99.90
36670;DHT22;22662;47.412;9.742;2022-11-20T03:19:30;6.40;99.90
36670;DHT22;22662;47.412;9.742;2022-11-20T03:21:55;6.40;99.90
36670;DHT22;22662;47.412;9.742;2022-11-20T03:24:21;6.40;99.90
36670;DHT22;22662;47.412;9.742;2022-11-20T03:26:46;6.50;99.90
36670;DHT22;22662;47.412;9.742;2022-11-20T03:29:12;6.50;99.90
36670;DHT22;22662;47.412;9.742;2022-11-20T03:31:38;6.50;99.90
36670;DHT22;22662;47.412;9.742;2022-11-20T03:34:07;6.50;99.90
36670;DHT22;22662;47.412;9.742;2022-11-20T03:36:33;6.50;99.90
36670;DHT22;22662;47.412;9.742;2022-11-20T03:38:59;6.50;99.90
36670;DHT22;22662;47.412;9.742;2022-11-20T03:41:28;6.50;99.90
36670;DHT22;22662;47.412;9.742;2022-11-20T03:43:55;6.50;99.90
36670;DHT22;22662;47.412;9.742;2022-11-20T03:46:20;6.60;99.90
36670;DHT22;22662;47.412;9.742;2022-11-20T03:48:46;6.60;99.90
36670;DHT22;22662;47.412;9.742;2022-11-20T03:51:13;6.70;99.90
36670;DHT22;22662;47.412;9.742;2022-11-20T03:53:39;6.70;99.90
36670;DHT22;22662;47.412;9.742;2022-11-20T03:56:05;6.70;99.90
36670;DHT22;22662;47.412;9.742;2022-11-20T03:58:32;6.80;99.90
36670;DHT22;22662;47.412;9.742;2022-11-20T04:00:57;6.80;99.90
36670;DHT22;22662;47.412;9.742;2022-11-20T04:03:23;6.80;99.90
36670;DHT22;22662;47.412;9.742;2022-11-20T04:05:48;6.80;99.90
36670;DHT22;22662;47.412;9.742;2022-11-20T04:08:14;6.90;99.90
36670;DHT22;22662;47.412;9.742;2022-11-20T04:10:39;6.90;99.90
36670;DHT22;22662;47.412;9.742;2022-11-20T04:13:05;6.80;99.90
36670;DHT22;22662;47.412;9.742;2022-11-20T04:15:30;6.80;99.90
36670;DHT22;22662;47.412;9.742;2022-11-20T04:17:56;6.80;99.90
36670;DHT22;22662;47.412;9.742;2022-11-20T04:20:21;6.80;99.90
36670;DHT22;22662;47.412;9.742;2022-11-20T04:22:47;6.80;99.90
36670;DHT22;22662;47.412;9.742;2022-11-20T04:25:12;6.80;99.90
36670;DHT22;22662;47.412;9.742;2022-11-20T04:27:38;6.90;99.90
36670;DHT22;22662;47.412;9.742;2022-11-20T04:30:03;6.90;99.90
36670;DHT22;22662;47.412;9.742;2022-11-20T04:32:29;6.90;99.90
36670;DHT22;22662;47.412;9.742;2022-11-20T04:34:54;6.90;99.90
36670;DHT22;22662;47.412;9.742;2022-11-20T04:37:20;6.90;99.90
36670;DHT22;22662;47.412;9.742;2022-11-20T04:39:45;6.80;99.90
36670;DHT22;22662;47.412;9.742;2022-11-20T04:42:11;6.70;99.90
36670;DHT22;22662;47.412;9.742;2022-11-20T04:44:55;6.60;99.90
36670;DHT22;22662;47.412;9.742;2022-11-20T04:47:20;6.60;99.90
36670;DHT22;22662;47.412;9.742;2022-11-20T04:49:46;6.50;99.90
36670;DHT22;22662;47.412;9.742;2022-11-20T04:52:12;6.50;99.90
36670;DHT22;22662;47.412;9.742;2022-11-20T04:54:37;6.40;99.90
36670;DHT22;22662;47.412;9.742;2022-11-20T04:57:03;6.40;99.90
36670;DHT22;22662;47.412;9.742;2022-11-20T04:59:28;6.40;99.90
36670;DHT22;22662;47.412;9.742;2022-11-20T05:01:54;6.40;99.90
36670;DHT22;22662;47.412;9.742;2022-11-20T05:04:19;6.30;99.90
36670;DHT22;22662;47.412;9.742;2022-11-20T05:06:45;6.30;99.90
36670;DHT22;22662;47.412;9.742;2022-11-20T05:09:11;6.30;99.90
36670;DHT22;22662;47.412;9.742;2022-11-20T05:11:37;6.20;99.90
36670;DHT22;22662;47.412;9.742;2022-11-20T05:14:02;6.20;99.90
36670;DHT22;22662;47.412;9.742;2022-11-20T05:16:28;6.20;99.90
36670;DHT22;22662;47.412;9.742;2022-11-20T05:18:54;6.30;99.90
36670;DHT22;22662;47.412;9.742;2022-11-20T05:21:20;6.30;99.90
36670;DHT22;22662;47.412;9.742;2022-11-20T05:23:45;6.30;99.90
36670;DHT22;22662;47.412;9.742;2022-11-20T05:26:12;6.30;99.90
36670;DHT22;22662;47.412;9.742;2022-11-20T05:28:38;6.20;99.90
36670;DHT22;22662;47.412;9.742;2022-11-20T05:31:13;6.20;99.90
36670;DHT22;22662;47.412;9.742;2022-11-20T05:33:40;6.20;99.90
36670;DHT22;22662;47.412;9.742;2022-11-20T05:36:06;6.20;99.90
36670;DHT22;22662;47.412;9.742;2022-11-20T05:38:31;6.20;99.90
36670;DHT22;22662;47.412;9.742;2022-11-20T05:41:03;6.20;99.90
36670;DHT22;22662;47.412;9.742;2022-11-20T05:43:31;6.20;99.90
36670;DHT22;22662;47.412;9.742;2022-11-20T05:45:57;6.20;99.90
36670;DHT22;22662;47.412;9.742;2022-11-20T05:48:22;6.20;99.90
36670;DHT22;22662;47.412;9.742;2022-11-20T05:50:48;6.20;99.90
36670;DHT22;22662;47.412;9.742;2022-11-20T05:53:13;6.20;99.90
36670;DHT22;22662;47.412;9.742;2022-11-20T05:55:39;6.20;99.90
36670;DHT22;22662;47.412;9.742;2022-11-20T05:58:04;6.10;99.90
36670;DHT22;22662;47.412;9.742;2022-11-20T06:00:30;6.10;99.90
36670;DHT22;22662;47.412;9.742;2022-11-20T06:02:55;6.00;99.90
36670;DHT22;22662;47.412;9.742;2022-11-20T06:05:21;6.00;99.90
36670;DHT22;22662;47.412;9.742;2022-11-20T06:07:46;5.90;99.90
36670;DHT22;22662;47.412;9.742;2022-11-20T06:10:12;5.80;99.90
36670;DHT22;22662;47.412;9.742;2022-11-20T06:12:37;5.70;99.90
36670;DHT22;22662;47.412;9.742;2022-11-20T06:15:04;5.70;99.90
36670;DHT22;22662;47.412;9.742;2022-11-20T06:17:30;5.60;99.90
36670;DHT22;22662;47.412;9.742;2022-11-20T06:19:55;5.60;99.90
36670;DHT22;22662;47.412;9.742;2022-11-20T06:22:21;5.60;99.90
36670;DHT22;22662;47.412;9.742;2022-11-20T06:24:46;5.60;99.90
36670;DHT22;22662;47.412;9.742;2022-11-20T06:27:12;5.60;99.90
36670;DHT22;22662;47.412;9.742;2022-11-20T06:29:37;5.70;99.90
36670;DHT22;22662;47.412;9.742;2022-11-20T06:32:03;5.70;99.90
36670;DHT22;22662;47.412;9.742;2022-11-20T06:34:29;5.80;99.90
36670;DHT22;22662;47.412;9.742;2022-11-20T06:36:54;5.80;99.90
36670;DHT22;22662;47.412;9.742;2022-11-20T06:39:20;5.90;99.90
36670;DHT22;22662;47.412;9.742;2022-11-20T06:41:45;5.90;99.90
36670;DHT22;22662;47.412;9.742;2022-11-20T06:44:11;6.00;99.90
36670;DHT22;22662;47.412;9.742;2022-11-20T06:46:36;6.00;99.90
36670;DHT22;22662;47.412;9.742;2022-11-20T06:49:02;6.10;99.90
36670;DHT22;22662;47.412;9.742;2022-11-20T06:51:27;6.10;99.90
36670;DHT22;22662;47.412;9.742;2022-11-20T06:53:53;6.20;99.90
36670;DHT22;22662;47.412;9.742;2022-11-20T06:56:19;6.20;99.90
36670;DHT22;22662;47.412;9.742;2022-11-20T06:58:44;6.20;99.90
36670;DHT22;22662;47.412;9.742;2022-11-20T07:01:11;6.20;99.90
36670;DHT22;22662;47.412;9.742;2022-11-20T07:03:37;6.20;99.90
36670;DHT22;22662;47.412;9.742;2022-11-20T07:06:03;6.20;99.90
36670;DHT22;22662;47.412;9.742;2022-11-20T07:08:29;6.20;99.90
36670;DHT22;22662;47.412;9.742;2022-11-20T07:10:58;6.30;99.90
36670;DHT22;22662;47.412;9.742;2022-11-20T07:13:25;6.40;99.90
36670;DHT22;22662;47.412;9.742;2022-11-20T07:15:50;6.40;99.90
36670;DHT22;22662;47.412;9.742;2022-11-20T07:18:16;6.50;99.90
36670;DHT22;22662;47.412;9.742;2022-11-20T07:20:41;6.60;99.90
36670;DHT22;22662;47.412;9.742;2022-11-20T07:23:07;6.70;99.90
36670;DHT22;22662;47.412;9.742;2022-11-20T07:25:32;6.80;99.90
36670;DHT22;22662;47.412;9.742;2022-11-20T07:27:58;6.80;99.90
36670;DHT22;22662;47.412;9.742;2022-11-20T07:30:24;6.70;99.90
36670;DHT22;22662;47.412;9.742;2022-11-20T07:32:51;6.70;99.90
36670;DHT22;22662;47.412;9.742;2022-11-20T07:35:16;6.50;99.90
36670;DHT22;22662;47.412;9.742;2022-11-20T07:37:42;6.40;99.90
36670;DHT22;22662;47.412;9.742;2022-11-20T07:40:08;6.30;99.90
36670;DHT22;22662;47.412;9.742;2022-11-20T07:42:33;6.30;99.90
36670;DHT22;22662;47.412;9.742;2022-11-20T07:44:59;6.20;99.90
36670;DHT22;22662;47.412;9.742;2022-11-20T07:47:24;6.30;99.90
36670;DHT22;22662;47.412;9.742;2022-11-20T07:49:50;6.40;99.90
36670;DHT22;22662;47.412;9.742;2022-11-20T07:52:15;6.40;99.90
36670;DHT22;22662;47.412;9.742;2022-11-20T07:54:41;6.40;99.90
36670;DHT22;22662;47.412;9.742;2022-11-20T07:57:06;6.50;99.90
36670;DHT22;22662;47.412;9.742;2022-11-20T07:59:32;6.50;99.90
36670;DHT22;22662;47.412;9.742;2022-11-20T08:01:57;6.50;99.90
36670;DHT22;22662;47.412;9.742;2022-11-20T08:04:23;6.50;99.90
36670;DHT22;22662;47.412;9.742;2022-11-20T08:06:49;6.50;99.90
36670;DHT22;22662;47.412;9.742;2022-11-20T08:09:14;6.50;99.90
36670;DHT22;22662;47.412;9.742;2022-11-20T08:11:40;6.60;99.90
36670;DHT22;22662;47.412;9.742;2022-11-20T08:14:24;6.60;99.90
36670;DHT22;22662;47.412;9.742;2022-11-20T08:16:49;6.70;99.90
36670;DHT22;22662;47.412;9.742;2022-11-20T08:19:16;6.70;99.90
36670;DHT22;22662;47.412;9.742;2022-11-20T08:21:42;6.90;99.90
36670;DHT22;22662;47.412;9.742;2022-11-20T08:24:08;6.90;99.90
36670;DHT22;22662;47.412;9.742;2022-11-20T08:26:34;7.10;99.90
36670;DHT22;22662;47.412;9.742;2022-11-20T08:29:00;7.00;99.90
36670;DHT22;22662;47.412;9.742;2022-11-20T08:31:25;6.90;99.90
36670;DHT22;22662;47.412;9.742;2022-11-20T08:33:51;6.80;99.90
36670;DHT22;22662;47.412;9.742;2022-11-20T08:36:17;6.90;99.90
36670;DHT22;22662;47.412;9.742;2022-11-20T08:38:50;6.80;99.90
36670;DHT22;22662;47.412;9.742;2022-11-20T08:41:16;6.90;99.90
36670;DHT22;22662;47.412;9.742;2022-11-20T08:43:53;6.90;99.90
36670;DHT22;22662;47.412;9.742;2022-11-20T08:46:19;7.00;99.90
36670;DHT22;22662;47.412;9.742;2022-11-20T08:48:44;7.00;99.90
36670;DHT22;22662;47.412;9.742;2022-11-20T08:51:10;7.10;99.90
36670;DHT22;22662;47.412;9.742;2022-11-20T08:53:36;7.10;99.90
36670;DHT22;22662;47.412;9.742;2022-11-20T08:56:01;7.10;99.90
36670;DHT22;22662;47.412;9.742;2022-11-20T08:58:27;7.10;99.90
36670;DHT22;22662;47.412;9.742;2022-11-20T09:00:52;7.00;99.90
36670;DHT22;22662;47.412;9.742;2022-11-20T09:03:18;7.00;99.90
36670;DHT22;22662;47.412;9.742;2022-11-20T09:05:44;7.10;99.90
36670;DHT22;22662;47.412;9.742;2022-11-20T09:08:09;7.00;99.90
36670;DHT22;22662;47.412;9.742;2022-11-20T09:10:35;7.10;99.90
36670;DHT22;22662;47.412;9.742;2022-11-20T09:13:01;7.20;99.90
36670;DHT22;22662;47.412;9.742;2022-11-20T09:15:27;7.30;99.90
36670;DHT22;22662;47.412;9.742;2022-11-20T09:17:56;7.40;99.90
36670;DHT22;22662;47.412;9.742;2022-11-20T09:20:23;7.60;99.90
36670;DHT22;22662;47.412;9.742;2022-11-20T09:22:49;7.60;99.90
36670;DHT22;22662;47.412;9.742;2022-11-20T09:25:15;7.70;99.90
36670;DHT22;22662;47.412;9.742;2022-11-20T09:27:42;7.90;99.90
36670;DHT22;22662;47.412;9.742;2022-11-20T09:30:09;8.10;99.90
36670;DHT22;22662;47.412;9.742;2022-11-20T09:32:35;8.40;99.90
36670;DHT22;22662;47.412;9.742;2022-11-20T09:35:01;8.80;99.90
36670;DHT22;22662;47.412;9.742;2022-11-20T09:37:27;8.90;99.90
36670;DHT22;22662;47.412;9.742;2022-11-20T09:39:52;9.00;99.90
36670;DHT22;22662;47.412;9.742;2022-11-20T09:50:10;8.60;99.90
36670;DHT22;22662;47.412;9.742;2022-11-20T09:52:53;8.60;99.90
36670;DHT22;22662;47.412;9.742;2022-11-20T09:55:20;8.50;99.90
36670;DHT22;22662;47.412;9.742;2022-11-20T09:57:47;8.50;99.90
36670;DHT22;22662;47.412;9.742;2022-11-20T10:00:14;8.40;99.90
36670;DHT22;22662;47.412;9.742;2022-11-20T10:07:53;8.50;99.90
36670;DHT22;22662;47.412;9.742;2022-11-20T10:16:01;8.50;99.90
36670;DHT22;22662;47.412;9.742;2022-11-20T10:18:37;8.70;99.90
36670;DHT22;22662;47.412;9.742;2022-11-20T10:29:07;9.00;99.90
36670;DHT22;22662;47.412;9.742;2022-11-20T10:31:36;9.00;99.90
36670;DHT22;22662;47.412;9.742;2022-11-20T10:37:02;8.90;99.90
36670;DHT22;22662;47.412;9.742;2022-11-20T10:39:35;8.80;99.90
36670;DHT22;22662;47.412;9.742;2022-11-20T10:42:02;8.70;99.90
36670;DHT22;22662;47.412;9.742;2022-11-20T10:44:28;8.90;99.90
36670;DHT22;22662;47.412;9.742;2022-11-20T10:47:16;8.90;99.90
36670;DHT22;22662;47.412;9.742;2022-11-20T10:49:43;9.00;99.90
36670;DHT22;22662;47.412;9.742;2022-11-20T10:52:16;9.10;99.90
36670;DHT22;22662;47.412;9.742;2022-11-20T11:00:07;8.90;99.90
36670;DHT22;22662;47.412;9.742;2022-11-20T11:02:37;8.70;99.90
36670;DHT22;22662;47.412;9.742;2022-11-20T11:05:08;8.50;99.90
36670;DHT22;22662;47.412;9.742;2022-11-20T11:07:36;8.50;99.90
36670;DHT22;22662;47.412;9.742;2022-11-20T11:10:12;8.50;99.90
36670;DHT22;22662;47.412;9.742;2022-11-20T11:12:42;8.50;99.90
36670;DHT22;22662;47.412;9.742;2022-11-20T11:15:11;8.70;99.90
36670;DHT22;22662;47.412;9.742;2022-11-20T11:17:37;8.70;99.90
36670;DHT22;22662;47.412;9.742;2022-11-20T11:20:15;8.90;99.90
36670;DHT22;22662;47.412;9.742;2022-11-20T11:22:43;8.90;99.90
36670;DHT22;22662;47.412;9.742;2022-11-20T11:28:19;8.90;99.90
36670;DHT22;22662;47.412;9.742;2022-11-20T11:30:45;8.80;99.90
36670;DHT22;22662;47.412;9.742;2022-11-20T11:33:12;8.70;99.90
36670;DHT22;22662;47.412;9.742;2022-11-20T11:35:44;8.90;99.90
36670;DHT22;22662;47.412;9.742;2022-11-20T11:38:12;9.00;99.90
36670;DHT22;22662;47.412;9.742;2022-11-20T11:40:39;9.00;99.90
36670;DHT22;22662;47.412;9.742;2022-11-20T11:43:05;9.10;99.90
36670;DHT22;22662;47.412;9.742;2022-11-20T11:45:55;9.20;99.90
36670;DHT22;22662;47.412;9.742;2022-11-20T11:48:21;9.30;99.90
36670;DHT22;22662;47.412;9.742;2022-11-20T11:50:49;9.30;99.90
36670;DHT22;22662;47.412;9.742;2022-11-20T11:53:19;9.20;99.90
36670;DHT22;22662;47.412;9.742;2022-11-20T11:55:59;9.20;99.90
36670;DHT22;22662;47.412;9.742;2022-11-20T11:58:43;9.20;99.90
36670;DHT22;22662;47.412;9.742;2022-11-20T12:03:43;9.20;99.90
36670;DHT22;22662;47.412;9.742;2022-11-20T12:06:12;9.20;99.90
36670;DHT22;22662;47.412;9.742;2022-11-20T12:13:44;9.40;99.90
36670;DHT22;22662;47.412;9.742;2022-11-20T12:16:14;9.50;99.90
36670;DHT22;22662;47.412;9.742;2022-11-20T12:18:40;9.70;99.90
36670;DHT22;22662;47.412;9.742;2022-11-20T12:26:34;9.30;99.90
36670;DHT22;22662;47.412;9.742;2022-11-20T12:29:10;9.20;99.90
36670;DHT22;22662;47.412;9.742;2022-11-20T12:31:55;9.20;99.90
36670;DHT22;22662;47.412;9.742;2022-11-20T12:34:37;9.30;99.90
36670;DHT22;22662;47.412;9.742;2022-11-20T12:37:13;9.20;99.90
36670;DHT22;22662;47.412;9.742;2022-11-20T12:39:41;9.40;99.90
36670;DHT22;22662;47.412;9.742;2022-11-20T12:42:28;9.40;99.90
36670;DHT22;22662;47.412;9.742;2022-11-20T12:53:11;9.50;99.90
36670;DHT22;22662;47.412;9.742;2022-11-20T12:58:17;9.50;99.90
36670;DHT22;22662;47.412;9.742;2022-11-20T13:01:08;9.60;99.90
36670;DHT22;22662;47.412;9.742;2022-11-20T13:06:01;9.70;99.90
36670;DHT22;22662;47.412;9.742;2022-11-20T13:11:17;10.20;99.90
36670;DHT22;22662;47.412;9.742;2022-11-20T13:13:47;10.70;99.90
36670;DHT22;22662;47.412;9.742;2022-11-20T13:16:17;10.90;99.90
36670;DHT22;22662;47.412;9.742;2022-11-20T13:18:45;10.90;99.90
36670;DHT22;22662;47.412;9.742;2022-11-20T13:21:18;10.70;99.90
36670;DHT22;22662;47.412;9.742;2022-11-20T13:23:44;10.50;99.90
36670;DHT22;22662;47.412;9.742;2022-11-20T13:26:19;10.50;99.90
36670;DHT22;22662;47.412;9.742;2022-11-20T13:28:46;10.40;99.90
36670;DHT22;22662;47.412;9.742;2022-11-20T13:31:24;10.10;99.90
36670;DHT22;22662;47.412;9.742;2022-11-20T13:33:53;10.00;99.90
36670;DHT22;22662;47.412;9.742;2022-11-20T13:36:21;9.90;99.90
36670;DHT22;22662;47.412;9.742;2022-11-20T13:38:48;10.00;99.90
36670;DHT22;22662;47.412;9.742;2022-11-20T13:41:27;10.00;99.90
36670;DHT22;22662;47.412;9.742;2022-11-20T13:43:53;10.00;99.90
36670;DHT22;22662;47.412;9.742;2022-11-20T13:46:19;9.90;99.90
36670;DHT22;22662;47.412;9.742;2022-11-20T13:48:49;9.80;99.90
36670;DHT22;22662;47.412;9.742;2022-11-20T13:56:40;9.50;99.90
36670;DHT22;22662;47.412;9.742;2022-11-20T14:01:40;9.60;99.90
36670;DHT22;22662;47.412;9.742;2022-11-20T14:04:08;9.60;99.90
36670;DHT22;22662;47.412;9.742;2022-11-20T14:06:39;9.60;99.90
36670;DHT22;22662;47.412;9.742;2022-11-20T14:09:10;9.60;99.90
36670;DHT22;22662;47.412;9.742;2022-11-20T14:11:35;9.50;99.90
36670;DHT22;22662;47.412;9.742;2022-11-20T14:14:10;9.40;99.90
36670;DHT22;22662;47.412;9.742;2022-11-20T14:16:38;9.40;99.90
36670;DHT22;22662;47.412;9.742;2022-11-20T14:21:41;9.50;99.90
36670;DHT22;22662;47.412;9.742;2022-11-20T14:24:09;9.50;99.90
36670;DHT22;22662;47.412;9.742;2022-11-20T14:26:35;9.50;99.90
36670;DHT22;22662;47.412;9.742;2022-11-20T14:29:03;9.50;99.90
36670;DHT22;22662;47.412;9.742;2022-11-20T14:31:28;9.40;99.90
36670;DHT22;22662;47.412;9.742;2022-11-20T14:33:54;9.40;99.90
36670;DHT22;22662;47.412;9.742;2022-11-20T14:36:21;9.50;99.90
36670;DHT22;22662;47.412;9.742;2022-11-20T14:38:47;9.50;99.90
36670;DHT22;22662;47.412;9.742;2022-11-20T14:41:16;9.50;99.90
36670;DHT22;22662;47.412;9.742;2022-11-20T14:43:45;9.40;99.90
36670;DHT22;22662;47.412;9.742;2022-11-20T14:46:11;9.20;99.90
36670;DHT22;22662;47.412;9.742;2022-11-20T14:48:38;9.20;99.90
36670;DHT22;22662;47.412;9.742;2022-11-20T14:51:04;9.10;99.90
36670;DHT22;22662;47.412;9.742;2022-11-20T14:53:30;9.00;99.90
36670;DHT22;22662;47.412;9.742;2022-11-20T14:56:00;8.90;99.90
36670;DHT22;22662;47.412;9.742;2022-11-20T14:58:27;8.80;99.90
36670;DHT22;22662;47.412;9.742;2022-11-20T15:00:54;8.60;99.90
36670;DHT22;22662;47.412;9.742;2022-11-20T15:03:20;8.50;99.90
36670;DHT22;22662;47.412;9.742;2022-11-20T15:05:49;8.40;99.90
36670;DHT22;22662;47.412;9.742;2022-11-20T15:08:15;8.20;99.90
36670;DHT22;22662;47.412;9.742;2022-11-20T15:10:48;8.00;99.90
36670;DHT22;22662;47.412;9.742;2022-11-20T15:18:16;7.60;99.90
36670;DHT22;22662;47.412;9.742;2022-11-20T15:20:43;7.40;99.90
36670;DHT22;22662;47.412;9.742;2022-11-20T15:23:10;7.40;99.90
36670;DHT22;22662;47.412;9.742;2022-11-20T15:25:37;7.30;99.90
36670;DHT22;22662;47.412;9.742;2022-11-20T15:28:04;7.20;99.90
36670;DHT22;22662;47.412;9.742;2022-11-20T15:30:30;7.20;99.90
36670;DHT22;22662;47.412;9.742;2022-11-20T15:32:55;7.10;99.90
36670;DHT22;22662;47.412;9.742;2022-11-20T15:35:21;7.00;99.90
36670;DHT22;22662;47.412;9.742;2022-11-20T15:37:46;7.00;99.90
36670;DHT22;22662;47.412;9.742;2022-11-20T15:40:12;6.90;99.90
36670;DHT22;22662;47.412;9.742;2022-11-20T15:42:38;6.90;99.90
36670;DHT22;22662;47.412;9.742;2022-11-20T15:45:03;6.80;99.90
36670;DHT22;22662;47.412;9.742;2022-11-20T15:47:33;6.80;99.90
36670;DHT22;22662;47.412;9.742;2022-11-20T15:49:58;6.70;99.90
36670;DHT22;22662;47.412;9.742;2022-11-20T15:52:24;6.70;99.90
36670;DHT22;22662;47.412;9.742;2022-11-20T15:54:50;6.60;99.90
36670;DHT22;22662;47.412;9.742;2022-11-20T15:57:15;6.50;99.90
36670;DHT22;22662;47.412;9.742;2022-11-20T15:59:41;6.50;99.90
36670;DHT22;22662;47.412;9.742;2022-11-20T16:02:13;6.50;99.90
36670;DHT22;22662;47.412;9.742;2022-11-20T16:04:39;6.50;99.90
36670;DHT22;22662;47.412;9.742;2022-11-20T16:07:05;6.40;99.90
36670;DHT22;22662;47.412;9.742;2022-11-20T16:09:30;6.40;99.90
36670;DHT22;22662;47.412;9.742;2022-11-20T16:11:56;6.30;99.90
36670;DHT22;22662;47.412;9.742;2022-11-20T16:14:24;6.30;99.90
36670;DHT22;22662;47.412;9.742;2022-11-20T16:17:08;6.20;99.90
36670;DHT22;22662;47.412;9.742;2022-11-20T16:19:34;6.20;99.90
36670;DHT22;22662;47.412;9.742;2022-11-20T16:21:59;6.20;99.90
36670;DHT22;22662;47.412;9.742;2022-11-20T16:24:28;6.20;99.90
36670;DHT22;22662;47.412;9.742;2022-11-20T16:26:54;6.20;99.90
36670;DHT22;22662;47.412;9.742;2022-11-20T16:29:19;6.20;99.90
36670;DHT22;22662;47.412;9.742;2022-11-20T16:31:45;6.20;99.90
36670;DHT22;22662;47.412;9.742;2022-11-20T16:34:10;6.20;99.90
36670;DHT22;22662;47.412;9.742;2022-11-20T16:36:36;6.20;99.90
36670;DHT22;22662;47.412;9.742;2022-11-20T16:39:04;6.20;99.90
36670;DHT22;22662;47.412;9.742;2022-11-20T16:41:30;6.20;99.90
36670;DHT22;22662;47.412;9.742;2022-11-20T16:43:57;6.20;99.90
36670;DHT22;22662;47.412;9.742;2022-11-20T16:46:23;6.10;99.90
36670;DHT22;22662;47.412;9.742;2022-11-20T16:48:53;6.10;99.90
36670;DHT22;22662;47.412;9.742;2022-11-20T16:51:19;6.10;99.90
36670;DHT22;22662;47.412;9.742;2022-11-20T16:53:45;6.10;99.90
36670;DHT22;22662;47.412;9.742;2022-11-20T16:56:14;6.10;99.90
36670;DHT22;22662;47.412;9.742;2022-11-20T16:58:43;6.10;99.90
36670;DHT22;22662;47.412;9.742;2022-11-20T17:01:09;6.10;99.90
36670;DHT22;22662;47.412;9.742;2022-11-20T17:03:36;6.10;99.90
36670;DHT22;22662;47.412;9.742;2022-11-20T17:06:09;6.10;99.90
36670;DHT22;22662;47.412;9.742;2022-11-20T17:08:35;6.00;99.90
36670;DHT22;22662;47.412;9.742;2022-11-20T17:11:04;6.00;99.90
36670;DHT22;22662;47.412;9.742;2022-11-20T17:13:30;6.00;99.90